Toughkenamon, Pennsylvania
Current Conditions -  °F | °C
As of 8:35 AM on Friday 19 Dec 2014 (Local Time) from KMQS Reporting Station
Overcast Overcast  
Wind Chill: 28°   Ceiling: 2900
Heat Index: 36°   Visibility: 10mi
Dew Point: 28°   Wind: 12mph
Humidity: 75%   Direction: 310°NW
Pressure: 30.07"   Gusts: NA
Location:  39.83°N, 75.76°W
Report Text: KMQS 191335Z AUTO 31010KT 10SM OVC029 02/M02 A3007 RMK AO2
Loading
Personal Weather Stations






























Interactive Weather Map New forecast layout! Learn more

10-Day Weather Forecast

Advertisements
Track Severe Weather on mobile